Latest Weather Observations for Mount Moornapa

IDV60801

Issued at 5:02 pm EST Saturday 2 July 2016 (issued every 30 minutes, with the page automatically refreshed every 10 minutes)

About weather observations | Map of weather stations | Latest weather observations for VIC | Other Formats
Station Details ID: 085296 Name: MOUNT MOORNAPA Lat: -37.75 Lon: 147.14 Height: 480.0 m
Data from the previous 72 hours. | See also: Recent months at Mount Moornapa
Date/Time
EST
Temp
°C
App
Temp
°C
Dew
Point
°C
Rel
Hum
%
Delta-T
°C
Wind Press
QNH
hPa
Press
MSL
hPa
Rain since
9am
mm
Dir  Spd
km/h
Gust
km/h
Spd
kts
Gust
kts
02/05:00pm 9.6 6.5 3.4 65 2.8 NW 9 20 5 11 - - 0.0
02/04:30pm 11.5 8.1 3.8 59 3.5 WNW 11 20 6 11 - - 0.0
02/04:00pm 12.3 8.9 3.8 56 3.9 WNW 11 24 6 13 - - 0.0
02/03:30pm 12.0 8.6 4.0 58 3.7 WNW 11 20 6 11 - - 0.0
02/03:00pm 13.7 10.8 4.8 55 4.2 W 9 22 5 12 - - 0.0
02/02:30pm 14.1 11.2 4.9 54 4.4 WNW 9 24 5 13 - - 0.0
02/02:00pm 14.3 10.8 5.4 55 4.3 WNW 13 28 7 15 - - 0.0
02/01:30pm 13.8 10.6 5.2 56 4.1 WNW 11 32 6 17 - - 0.0
02/01:00pm 13.3 10.7 5.9 61 3.6 W 9 22 5 12 - - 0.0
02/12:30pm 12.8 10.7 5.9 63 3.3 W 6 11 3 6 - - 0.0
02/12:00pm 12.6 10.4 6.0 64 3.2 W 7 15 4 8 - - 0.0
02/11:30am 12.4 10.3 6.0 65 3.1 W 6 11 3 6 - - 0.0
02/11:00am 11.2 7.7 5.3 67 2.8 W 13 24 7 13 - - 0.0
02/10:30am 11.2 8.9 5.9 70 2.5 W 7 15 4 8 - - 0.0
02/10:00am 10.9 8.6 5.7 70 2.5 WNW 7 17 4 9 - - 0.0
02/09:30am 10.2 7.4 5.0 70 2.4 WNW 9 15 5 8 - - 0.0
02/09:00am 9.5 6.6 4.9 73 2.1 NW 9 19 5 10 - - 0.6
02/08:30am 9.0 5.7 4.4 73 2.1 NW 11 20 6 11 - - 0.6
02/08:00am 8.1 5.2 4.9 80 1.5 NW 9 13 5 7 - - 0.6
02/07:30am 7.9 4.9 4.3 78 1.6 NW 9 19 5 10 - - 0.6
02/07:00am 8.5 6.1 4.5 76 1.8 NW 6 9 3 5 - - 0.6
02/06:30am 9.3 6.1 4.9 74 2.0 W 11 32 6 17 - - 0.6
02/06:00am 8.6 6.1 4.6 76 1.8 NW 7 13 4 7 - - 0.6
02/05:30am 8.6 6.2 4.4 75 1.9 WNW 6 9 3 5 - - 0.6
02/05:00am 8.8 5.5 4.4 74 2.0 WNW 11 20 6 11 - - 0.6
02/04:30am 8.7 5.4 4.5 75 1.9 WNW 11 22 6 12 - - 0.6
02/04:00am 7.7 4.7 3.9 77 1.7 NW 9 15 5 8 - - 0.6
02/03:30am 8.5 5.5 4.1 74 2.0 NW 9 17 5 9 - - 0.6
02/03:00am 7.6 4.5 3.5 75 1.8 NW 9 19 5 10 - - 0.6
02/02:30am 8.5 4.6 3.6 71 2.2 NNW 13 20 7 11 - - 0.6
02/02:00am 7.8 3.5 3.5 74 1.9 NNW 15 26 8 14 - - 0.6
02/01:30am 8.2 4.4 3.7 73 2.0 NNW 13 22 7 12 - - 0.6
02/01:00am 8.2 4.8 3.9 74 1.9 NNW 11 24 6 13 - - 0.6
02/12:30am 8.0 4.6 4.0 76 1.8 NW 11 20 6 11 - - 0.6
02/12:00am 7.5 4.5 3.9 78 1.6 NW 9 19 5 10 - - 0.6
 
Date/Time
EST
Temp
°C
App
Temp
°C
Dew
Point
°C
Rel
Hum
%
Delta-T
°C
Wind Press
QNH
hPa
Press
MSL
hPa
Rain since
9am
mm
Dir  Spd
km/h
Gust
km/h
Spd
kts
Gust
kts
01/11:30pm 7.7 4.6 3.7 76 1.8 NW 9 15 5 8 - - 0.6
01/11:00pm 7.9 5.2 3.8 75 1.8 WNW 7 19 4 10 - - 0.6
01/10:30pm 7.4 4.2 3.3 75 1.8 NW 9 15 5 8 - - 0.6
01/10:00pm 7.9 5.2 3.6 74 1.9 WNW 7 13 4 7 - - 0.6
01/09:30pm 7.8 5.1 3.5 74 1.9 NW 7 15 4 8 - - 0.6
01/09:00pm 7.9 4.8 3.4 73 2.0 NW 9 17 5 9 - - 0.6
01/08:30pm 7.5 4.8 3.6 76 1.7 NW 7 13 4 7 - - 0.6
01/08:00pm 6.7 4.0 3.5 80 1.4 NW 7 13 4 7 - - 0.6
01/07:30pm 7.0 4.2 3.4 78 1.6 NW 7 13 4 7 - - 0.6
01/07:00pm 7.6 5.0 4.0 78 1.6 NW 7 15 4 8 - - 0.6
01/06:30pm 7.5 4.2 4.6 82 1.3 NW 11 22 6 12 - - 0.6
01/06:00pm 7.3 4.6 5.8 90 0.7 NW 9 20 5 11 - - 0.6
01/05:30pm 7.2 4.5 5.5 89 0.8 NW 9 17 5 9 - - 0.6
01/05:00pm 7.0 3.8 5.2 88 0.8 W 11 22 6 12 - - 0.6
01/04:30pm 7.3 4.5 5.0 85 1.0 WSW 9 19 5 10 - - 0.6
01/04:00pm 7.9 4.3 5.2 83 1.2 WSW 13 33 7 18 - - 0.6
01/03:30pm 8.1 4.7 5.9 86 1.0 WSW 13 28 7 15 - - 0.6
01/03:00pm 7.7 4.5 6.8 94 0.4 WSW 13 32 7 17 - - 0.6
01/02:30pm 8.5 5.4 7.3 92 0.6 WSW 13 20 7 11 - - 0.4
01/02:00pm 7.9 5.3 7.8 99 0.0 WSW 11 30 6 16 - - 0.4
01/01:30pm 8.8 6.9 7.4 91 0.7 SW 7 19 4 10 - - 0.2
01/01:00pm 8.8 7.0 7.1 89 0.8 SW 6 19 3 10 - - 0.2
01/12:30pm 9.0 6.1 6.3 83 1.3 SW 11 24 6 13 - - 0.2
01/12:00pm 9.4 6.3 5.6 77 1.8 WSW 11 24 6 13 - - 0.2
01/11:30am 8.9 6.3 6.2 83 1.3 WSW 9 19 5 10 - - 0.2
01/11:00am 8.2 5.4 6.8 91 0.7 W 11 20 6 11 - - 0.2
01/10:30am 7.3 4.6 7.2 99 0.0 W 11 20 6 11 - - 0.2
01/10:00am 6.9 3.7 6.8 99 0.0 WSW 13 30 7 16 - - 0.0
01/09:30am 7.3 4.2 5.6 89 0.8 WSW 11 28 6 15 - - 0.0
01/09:00am 7.1 3.9 4.9 86 1.0 WSW 11 22 6 12 - - 1.2
01/08:30am 6.9 3.2 4.2 83 1.2 WSW 13 30 7 16 - - 1.2
01/08:00am 6.7 2.5 3.7 81 1.3 W 15 26 8 14 - - 1.2
01/07:30am 6.2 2.4 3.7 84 1.1 W 13 26 7 14 - - 1.2
01/07:00am 5.5 1.5 2.8 83 1.1 W 13 24 7 13 - - 1.2
01/06:30am 5.2 1.4 1.7 78 1.4 WNW 11 20 6 11 - - 1.2
01/06:00am 4.2 0.7 1.2 81 1.2 WNW 9 17 5 9 - - 1.2
01/05:30am 4.2 1.1 1.6 83 1.1 WNW 7 13 4 7 - - 1.2
01/05:00am 4.7 1.8 1.4 79 1.3 W 6 11 3 6 - - 1.2
01/04:30am 5.0 1.9 1.3 77 1.5 W 7 11 4 6 - - 1.2
01/04:00am 3.7 0.6 1.4 85 0.9 NW 7 9 4 5 - - 1.2
01/03:30am 4.2 0.7 1.4 82 1.1 N 9 11 5 6 - - 1.2
01/03:00am 4.3 0.5 1.5 82 1.1 N 11 13 6 7 - - 1.2
01/02:30am 4.6 1.2 1.6 81 1.2 N 9 11 5 6 - - 1.2
01/02:00am 4.4 0.6 1.8 83 1.1 N 11 13 6 7 - - 1.0
01/01:30am 4.5 1.1 1.9 83 1.1 N 9 13 5 7 - - 1.0
01/01:00am 4.3 0.6 2.2 86 0.9 N 11 17 6 9 - - 1.0
01/12:30am 4.4 0.7 2.6 88 0.7 NNW 11 17 6 9 - - 1.0
01/12:00am 4.6 1.4 2.8 88 0.8 NW 9 15 5 8 - - 1.0
 
Date/Time
EST
Temp
°C
App
Temp
°C
Dew
Point
°C
Rel
Hum
%
Delta-T
°C
Wind Press
QNH
hPa
Press
MSL
hPa
Rain since
9am
mm
Dir  Spd
km/h
Gust
km/h
Spd
kts
Gust
kts
30/11:30pm 4.7 1.8 2.6 86 0.9 NW 7 17 4 9 - - 1.0
30/11:00pm 5.1 2.0 3.8 91 0.6 NW 9 15 5 8 - - 1.0
30/10:30pm 5.5 2.4 3.7 88 0.8 WNW 9 22 5 12 - - 1.0
30/10:00pm 5.5 3.1 4.2 91 0.6 NW 6 9 3 5 - - 1.0
30/09:30pm 5.8 2.8 4.1 89 0.7 NNW 9 15 5 8 - - 1.0
30/09:00pm 5.7 2.0 4.5 92 0.5 NNW 13 26 7 14 - - 1.0
30/08:30pm 6.0 3.5 4.5 90 0.7 WSW 7 17 4 9 - - 0.4
30/08:00pm 7.7 4.8 2.6 70 2.2 NW 7 17 4 9 - - 0.0
30/07:30pm 7.8 4.0 1.9 66 2.5 N 11 19 6 10 - - 0.0
30/07:00pm 7.8 4.7 1.6 65 2.6 N 7 15 4 8 - - 0.0
30/06:30pm 7.8 4.4 1.6 65 2.6 NNW 9 19 5 10 - - 0.0
30/06:00pm 7.6 3.1 1.9 67 2.4 NNW 15 24 8 13 - - 0.0
30/05:30pm 7.4 3.6 1.9 68 2.3 NNW 11 19 6 10 - - 0.0
30/05:00pm 8.1 3.2 1.9 65 2.6 NNW 17 28 9 15 - - 0.0
30/04:30pm 8.7 3.8 1.8 62 2.9 NNW 17 30 9 16 - - 0.0
30/04:00pm 10.4 5.5 2.0 56 3.7 NNW 17 33 9 18 - - 0.0
30/03:30pm 11.6 7.7 3.4 57 3.7 NNW 13 28 7 15 - - 0.0
30/03:00pm 12.1 7.8 3.3 55 4.0 NNW 15 33 8 18 - - 0.0
30/02:30pm 12.2 7.5 3.2 54 4.1 NNW 17 33 9 18 - - 0.0
30/02:00pm 12.5 7.7 2.4 50 4.5 NNW 17 35 9 19 - - 0.0
30/01:30pm 12.0 8.4 3.0 54 4.1 NNW 11 22 6 12 - - 0.0
30/01:00pm 12.3 8.9 1.9 49 4.6 NW 9 24 5 13 - - 0.0
30/12:30pm 12.4 8.1 3.4 54 4.1 NNW 15 33 8 18 - - 0.0
30/12:00pm 10.5 6.9 3.1 60 3.3 NNW 11 32 6 17 - - 0.0
30/11:30am 9.8 6.4 1.9 58 3.4 NNW 9 20 5 11 - - 0.0
30/11:00am 10.1 6.7 2.0 57 3.5 NNW 9 26 5 14 - - 0.0
30/10:30am 10.0 6.1 1.1 54 3.8 NNW 11 28 6 15 - - 0.0
30/10:00am 10.0 7.2 1.9 57 3.5 NW 6 19 3 10 - - 0.0
30/09:30am 9.4 5.5 1.3 57 3.4 NNW 11 24 6 13 - - 0.0
30/09:00am 8.9 5.9 1.8 61 3.0 NNW 7 19 4 10 - - 0.0
30/08:30am 8.5 5.5 1.0 59 3.1 NNE 6 17 3 9 - - 0.0
30/08:00am 7.8 5.2 1.0 62 2.8 SE 4 9 2 5 - - 0.0
30/07:30am 8.3 5.1 1.0 60 3.0 N 7 13 4 7 - - 0.0
30/07:00am 8.0 4.1 1.0 61 2.9 N 11 15 6 8 - - 0.0
30/06:30am 7.5 3.6 1.1 64 2.7 NNW 11 17 6 9 - - 0.0
30/06:00am 7.2 3.3 1.3 66 2.4 NNW 11 17 6 9 - - 0.0
30/05:30am 6.9 3.0 1.2 67 2.4 NNW 11 19 6 10 - - 0.0
30/05:00am 7.0 3.1 1.1 66 2.4 NNW 11 19 6 10 - - 0.0
30/04:30am 6.7 1.7 1.4 69 2.2 NNW 17 30 9 16 - - 0.0
30/04:00am 6.7 2.8 1.2 68 2.3 NNW 11 24 6 13 - - 0.0
30/03:30am 6.8 3.7 1.5 69 2.2 NNE 7 11 4 6 - - 0.0
30/03:00am 7.0 4.5 1.7 69 2.2 SE 4 6 2 3 - - 0.0
30/02:30am 6.8 4.0 2.1 72 2.0 SSE 6 9 3 5 - - 0.0
30/02:00am 6.8 4.4 1.9 71 2.1 SSW 4 6 2 3 - - 0.0
30/01:30am 7.8 6.0 1.0 62 2.8 CALM 0 0 0 0 - - 0.0
30/01:00am 7.4 4.4 1.0 64 2.6 NNW 6 9 3 5 - - 0.0
30/12:30am 7.8 4.7 1.2 63 2.7 N 7 13 4 7 - - 0.0
30/12:00am 7.3 4.3 1.8 68 2.3 N 7 13 4 7 - - 0.0
 
Date/Time
EST
Temp
°C
App
Temp
°C
Dew
Point
°C
Rel
Hum
%
Delta-T
°C
Wind Press
QNH
hPa
Press
MSL
hPa
Rain since
9am
mm
Dir  Spd
km/h
Gust
km/h
Spd
kts
Gust
kts
29/11:30pm 7.4 5.0 2.1 69 2.2 N 4 9 2 5 - - 0.0
29/11:00pm 8.3 4.9 2.1 65 2.7 N 9 17 5 9 - - 0.0
29/10:30pm 7.1 3.4 2.6 73 1.9 N 11 19 6 10 - - 0.0
29/10:00pm 8.1 4.5 2.8 69 2.3 N 11 17 6 9 - - 0.0
29/09:30pm 8.2 5.0 2.9 69 2.3 N 9 17 5 9 - - 0.0
29/09:00pm 8.1 5.3 3.0 70 2.2 N 7 15 4 8 - - 0.0
29/08:30pm 7.8 3.8 3.1 72 2.0 NNW 13 20 7 11 - - 0.0
29/08:00pm 7.8 4.3 3.3 73 2.0 NNW 11 20 6 11 - - 0.0
29/07:30pm 7.8 4.3 3.3 73 2.0 NNW 11 17 6 9 - - 0.0
29/07:00pm 7.8 3.9 3.3 73 2.0 NNW 13 24 7 13 - - 0.0
29/06:30pm 8.1 4.2 3.4 72 2.1 NNW 13 20 7 11 - - 0.0
29/06:00pm 8.5 5.1 3.8 72 2.1 NNW 11 19 6 10 - - 0.0
29/05:30pm 9.3 5.9 3.9 69 2.4 N 11 19 6 10 - - 0.0

Other Formats:

Comma delimited format used in spreadsheet applications
http://www.bom.gov.au/fwo/IDV60801/IDV60801.95913.axf

JavaScript Object Notation format (JSON) in row-major order
http://www.bom.gov.au/fwo/IDV60801/IDV60801.95913.json